Time;durP1;ratioP1;P1;durP2;ratioP2;P2;SDS_P1;SDS_P2;PMS_P1;PMS_P2;Temp;Humidity;BMP_temperature;BMP_pressure;BME280_temperature;BME280_humidity;BME280_pressure;Samples;Min_cycle;Max_cycle;Signal;HPM_P1;HPM_P2
2023/04/14 03:01:03;;;;;;;0.75;0.00;;;6.20;94.30;;;;;;5990614;23;89348;31
2023/04/14 03:03:29;;;;;;;0.98;0.00;;;6.10;94.50;;;;;;4856682;28;88017;-72
2023/04/14 03:05:55;;;;;;;0.40;0.00;;;6.10;94.60;;;;;;4861381;29;87883;-72
2023/04/14 03:08:22;;;;;;;0.10;0.00;;;6.00;95.00;;;;;;4862207;28;87317;-72
2023/04/14 03:10:50;;;;;;;0.17;0.00;;;6.10;95.10;;;;;;4861706;29;86782;-72
2023/04/14 03:13:18;;;;;;;0.20;0.00;;;6.10;95.70;;;;;;4860936;29;87261;-72
2023/04/14 03:15:44;;;;;;;0.52;0.00;;;6.10;94.90;;;;;;4861178;29;88011;-71
2023/04/14 03:18:11;;;;;;;0.85;0.00;;;6.10;95.30;;;;;;4862371;29;88449;-72
2023/04/14 03:20:39;;;;;;;1.02;0.00;;;6.20;96.00;;;;;;4847885;29;87544;-72
2023/04/14 03:23:06;;;;;;;0.63;0.10;;;6.30;96.20;;;;;;4860398;29;88254;-73
2023/04/14 03:25:38;;;;;;;1.40;0.00;;;6.30;96.00;;;;;;4863452;28;88410;-72
2023/04/14 03:28:08;;;;;;;0.80;0.10;;;6.30;95.50;;;;;;4861145;29;88419;-72
2023/04/14 03:30:40;;;;;;;0.50;0.10;;;6.30;95.00;;;;;;4864440;29;87643;-72
2023/04/14 03:33:11;;;;;;;1.33;0.20;;;6.20;96.20;;;;;;4863539;28;87653;-73
2023/04/14 03:35:36;;;;;;;0.68;0.10;;;6.30;96.00;;;;;;4864571;29;87888;-72
2023/04/14 03:38:07;;;;;;;0.73;0.00;;;6.30;95.50;;;;;;4864398;29;87457;-71
2023/04/14 03:40:37;;;;;;;0.68;0.10;;;6.40;95.60;;;;;;4863682;29;89032;-71
2023/04/14 03:43:08;;;;;;;1.63;0.20;;;6.40;95.00;;;;;;4846034;29;89450;-71
2023/04/14 03:45:37;;;;;;;0.50;0.10;;;6.40;96.00;;;;;;4863103;29;88274;-71
2023/04/14 03:48:06;;;;;;;1.38;0.10;;;6.40;95.80;;;;;;4864045;29;87004;-71
2023/04/14 03:50:39;;;;;;;0.73;0.10;;;6.50;95.40;;;;;;4846648;29;87593;-71
2023/04/14 03:53:07;;;;;;;0.90;0.10;;;6.40;95.10;;;;;;4863818;29;87660;-70
2023/04/14 03:55:35;;;;;;;1.10;0.10;;;6.30;95.30;;;;;;4864198;29;87703;-70
2023/04/14 03:58:02;;;;;;;0.50;0.10;;;6.30;95.90;;;;;;4852598;29;88853;-70
2023/04/14 04:00:29;;;;;;;1.98;0.20;;;6.30;95.90;;;;;;4864697;28;86832;-71
2023/04/14 04:02:55;;;;;;;0.98;0.13;;;6.30;95.80;;;;;;4839787;29;89224;-70
2023/04/14 04:05:22;;;;;;;1.90;0.13;;;6.20;95.70;;;;;;4843868;29;87872;-70
2023/04/14 04:07:49;;;;;;;1.00;0.20;;;6.10;95.70;;;;;;4844551;29;88235;-70
2023/04/14 04:10:17;;;;;;;2.65;0.10;;;6.10;95.70;;;;;;4845015;29;87612;-70
2023/04/14 04:12:46;;;;;;;1.00;0.10;;;5.90;95.00;;;;;;4842893;29;87630;-70
2023/04/14 04:15:11;;;;;;;0.70;0.10;;;5.90;95.90;;;;;;4844575;29;89249;-69
2023/04/14 04:17:37;;;;;;;3.05;0.20;;;5.80;96.00;;;;;;4845040;29;87327;-69
2023/04/14 04:20:10;;;;;;;0.95;0.10;;;5.80;96.50;;;;;;4845112;29;87180;-70
2023/04/14 04:22:39;;;;;;;1.70;0.10;;;5.80;96.30;;;;;;4844638;29;88283;-70
2023/04/14 04:25:06;;;;;;;2.25;0.10;;;5.80;96.50;;;;;;4844575;29;87227;-70
2023/04/14 04:27:32;;;;;;;1.67;0.10;;;5.70;96.40;;;;;;4839013;29;87676;-70
2023/04/14 04:29:58;;;;;;;1.15;0.10;;;5.70;96.80;;;;;;4838659;29;87311;-70
2023/04/14 04:32:24;;;;;;;0.95;0.10;;;5.70;96.90;;;;;;4833905;29;89222;-70
2023/04/14 04:34:52;;;;;;;1.25;0.10;;;5.70;97.10;;;;;;4837221;29;88052;-70
2023/04/14 04:37:21;;;;;;;2.28;0.20;;;5.70;96.80;;;;;;4842493;29;89003;-71
2023/04/14 04:39:47;;;;;;;1.95;0.10;;;5.80;97.30;;;;;;4843840;29;87079;-70
2023/04/14 04:42:13;;;;;;;1.75;0.17;;;5.70;97.20;;;;;;4842774;29;88308;-70
2023/04/14 04:44:39;;;;;;;1.40;0.20;;;5.80;97.80;;;;;;4838322;29;89447;-71
2023/04/14 04:47:05;;;;;;;1.63;0.20;;;5.80;97.70;;;;;;4839000;29;87971;-71
2023/04/14 04:49:31;;;;;;;1.70;0.10;;;5.90;96.90;;;;;;4841790;29;86964;-70
2023/04/14 04:51:56;;;;;;;3.10;0.30;;;5.90;96.80;;;;;;4839752;29;87605;-71
2023/04/14 04:54:22;;;;;;;3.47;0.20;;;6.00;96.80;;;;;;4842697;29;87802;-69
2023/04/14 04:56:48;;;;;;;2.20;0.38;;;6.00;96.30;;;;;;4839771;29;88473;-71
2023/04/14 04:59:13;;;;;;;2.15;0.30;;;6.10;96.30;;;;;;4841059;29;87353;-71
2023/04/14 05:01:39;;;;;;;1.42;0.20;;;6.10;95.90;;;;;;4847181;29;88300;-71
2023/04/14 05:04:05;;;;;;;1.13;0.20;;;6.10;96.00;;;;;;4856676;28;87980;-72
2023/04/14 05:06:34;;;;;;;1.95;0.35;;;6.10;96.30;;;;;;4861258;28;87609;-71
2023/04/14 05:09:00;;;;;;;1.58;0.20;;;6.20;95.90;;;;;;4860908;28;87670;-71
2023/04/14 05:11:25;;;;;;;2.30;0.30;;;6.20;96.10;;;;;;4854279;28;88580;-71
2023/04/14 05:13:51;;;;;;;3.50;0.50;;;6.10;96.10;;;;;;4862583;29;88319;-71
2023/04/14 05:16:18;;;;;;;1.85;0.30;;;6.00;96.90;;;;;;4858904;29;88697;-71
2023/04/14 05:18:44;;;;;;;3.17;0.47;;;6.00;97.20;;;;;;4860631;29;87503;-71
2023/04/14 05:21:14;;;;;;;2.85;0.40;;;6.00;97.50;;;;;;4858453;28;88472;-71
2023/04/14 05:23:42;;;;;;;2.25;0.77;;;5.90;98.10;;;;;;4861230;28;88890;-71
2023/04/14 05:26:09;;;;;;;3.75;0.50;;;6.00;98.30;;;;;;4862094;28;87505;-72
2023/04/14 05:28:35;;;;;;;4.28;0.50;;;6.10;98.00;;;;;;4856922;29;88332;-71
2023/04/14 05:31:01;;;;;;;2.78;0.40;;;6.20;97.50;;;;;;4857375;29;88253;-71
2023/04/14 05:33:27;;;;;;;2.13;0.32;;;6.30;97.20;;;;;;4858753;29;87618;-71
2023/04/14 05:35:53;;;;;;;5.65;0.60;;;6.30;97.40;;;;;;4862253;29;87403;-72
2023/04/14 05:38:19;;;;;;;6.03;0.70;;;6.30;97.30;;;;;;4862904;29;86447;-71
2023/04/14 05:40:46;;;;;;;2.50;0.52;;;6.40;98.00;;;;;;4861690;28;87620;-71
2023/04/14 05:43:13;;;;;;;2.58;0.75;;;6.60;97.70;;;;;;4860979;28;88039;-71
2023/04/14 05:45:39;;;;;;;3.30;0.50;;;6.70;96.70;;;;;;4862125;29;88530;-71
2023/04/14 05:48:05;;;;;;;3.70;0.77;;;6.70;96.30;;;;;;4860961;29;87623;-72
2023/04/14 05:50:32;;;;;;;2.45;0.43;;;6.80;96.30;;;;;;4862177;29;87501;-71
2023/04/14 05:52:58;;;;;;;4.38;0.77;;;6.80;95.90;;;;;;4861241;29;87374;-71
2023/04/14 05:55:24;;;;;;;5.07;0.60;;;6.80;95.70;;;;;;4862043;29;87314;-71
2023/04/14 05:57:50;;;;;;;3.13;0.55;;;6.80;95.50;;;;;;4845913;28;87398;-71
2023/04/14 06:00:16;;;;;;;3.42;0.50;;;6.80;95.10;;;;;;4862192;29;87824;-71
2023/04/14 06:02:43;;;;;;;3.22;0.57;;;6.80;94.90;;;;;;4860888;29;87502;-72
2023/04/14 06:05:09;;;;;;;3.15;0.55;;;6.90;94.70;;;;;;4862008;29;87055;-71
2023/04/14 06:07:35;;;;;;;2.67;0.40;;;7.00;94.60;;;;;;4862222;29;87190;-71
2023/04/14 06:10:02;;;;;;;3.95;0.50;;;7.00;94.90;;;;;;4857881;29;88694;-72
2023/04/14 06:12:27;;;;;;;5.25;0.70;;;7.20;94.30;;;;;;4853844;29;88028;-71
2023/04/14 06:14:54;;;;;;;3.45;0.40;;;7.30;93.80;;;;;;4857625;28;88119;-71
2023/04/14 06:17:20;;;;;;;2.88;0.50;;;7.30;93.80;;;;;;4859199;28;87439;-71
2023/04/14 06:19:47;;;;;;;3.55;0.50;;;7.40;93.60;;;;;;4857141;29;88098;-72
2023/04/14 06:22:17;;;;;;;5.18;0.47;;;7.50;93.00;;;;;;4858044;29;88440;-71
2023/04/14 06:24:46;;;;;;;2.40;0.50;;;7.50;92.70;;;;;;4860941;29;87372;-72
2023/04/14 06:27:12;;;;;;;2.20;0.50;;;7.60;92.70;;;;;;4859181;29;86880;-72
2023/04/14 06:29:38;;;;;;;2.05;0.43;;;7.70;92.80;;;;;;4856261;29;89385;-72
2023/04/14 06:32:04;;;;;;;3.25;0.50;;;7.70;92.60;;;;;;4857997;28;88637;-72
2023/04/14 06:34:30;;;;;;;2.63;0.57;;;7.70;92.30;;;;;;4855834;29;88556;-70
2023/04/14 06:36:57;;;;;;;2.88;0.50;;;7.70;91.60;;;;;;4861941;28;87038;-72
2023/04/14 06:39:23;;;;;;;3.40;0.43;;;7.60;91.60;;;;;;4861386;29;88227;-72
2023/04/14 06:41:49;;;;;;;2.88;0.73;;;7.60;92.60;;;;;;4857533;29;87290;-71
2023/04/14 06:44:15;;;;;;;4.90;0.63;;;7.70;92.70;;;;;;4859072;29;87532;-72
2023/04/14 06:46:41;;;;;;;5.28;0.90;;;7.90;92.10;;;;;;4861925;29;87341;-72
2023/04/14 06:49:07;;;;;;;4.13;0.52;;;8.10;91.50;;;;;;4861846;28;87648;-72
2023/04/14 06:51:33;;;;;;;4.60;0.68;;;8.40;91.30;;;;;;4860675;29;87907;-70
2023/04/14 06:53:59;;;;;;;8.77;0.55;;;8.60;91.00;;;;;;4862108;29;87404;-71
2023/04/14 06:56:25;;;;;;;9.75;0.60;;;8.80;90.30;;;;;;4860621;29;87114;-70
2023/04/14 06:58:51;;;;;;;4.07;0.55;;;8.90;88.80;;;;;;4843872;29;90050;-71
2023/04/14 07:01:17;;;;;;;4.78;0.60;;;8.80;88.30;;;;;;4859539;28;88834;-70
2023/04/14 07:03:42;;;;;;;2.92;0.52;;;8.70;88.20;;;;;;4857442;29;87756;-70
2023/04/14 07:06:13;;;;;;;4.70;0.65;;;8.80;89.50;;;;;;4864933;28;87383;-70
2023/04/14 07:08:39;;;;;;;3.08;0.75;;;8.80;89.40;;;;;;4860062;28;87525;-70
2023/04/14 07:11:07;;;;;;;2.97;0.70;;;8.80;88.60;;;;;;4855374;29;89207;-70
2023/04/14 07:13:34;;;;;;;2.85;0.40;;;8.60;88.10;;;;;;4859080;29;88862;-70
2023/04/14 07:16:01;;;;;;;4.90;0.70;;;8.60;90.00;;;;;;4852392;28;87477;-71
2023/04/14 07:18:27;;;;;;;5.68;1.10;;;8.50;89.40;;;;;;4850004;28;89101;-71
2023/04/14 07:20:54;;;;;;;4.18;0.90;;;8.40;90.10;;;;;;4860300;29;89553;-71
2023/04/14 07:23:20;;;;;;;5.82;1.13;;;8.40;90.30;;;;;;4868857;28;88463;-71
2023/04/14 07:25:57;;;;;;;6.20;1.00;;;8.40;90.10;;;;;;4864209;28;88299;-71
2023/04/14 07:28:23;;;;;;;6.20;1.10;;;8.30;90.30;;;;;;4854130;29;87618;-71
2023/04/14 07:30:50;;;;;;;4.75;0.90;;;8.30;90.40;;;;;;4856217;29;87897;-71
2023/04/14 07:33:17;;;;;;;4.40;1.05;;;8.30;90.40;;;;;;4859697;29;87587;-71
2023/04/14 07:35:44;;;;;;;5.22;0.80;;;8.30;91.10;;;;;;4847805;29;88445;-71
2023/04/14 07:38:10;;;;;;;5.05;0.60;;;8.40;92.00;;;;;;4848820;29;87425;-71
2023/04/14 07:40:35;;;;;;;5.50;0.63;;;8.50;90.40;;;;;;4847918;28;87835;-71
2023/04/14 07:43:01;;;;;;;5.40;0.52;;;8.70;90.40;;;;;;4852796;29;87333;-71
2023/04/14 07:45:27;;;;;;;4.45;0.73;;;8.80;90.80;;;;;;4851247;29;87740;-71
2023/04/14 07:47:53;;;;;;;4.57;0.73;;;9.00;90.20;;;;;;4846036;29;88808;-71
2023/04/14 07:50:18;;;;;;;4.60;0.70;;;9.20;88.70;;;;;;4858600;28;89038;-71
2023/04/14 07:52:44;;;;;;;3.38;0.60;;;9.40;88.70;;;;;;4858957;29;87246;-71
2023/04/14 07:55:10;;;;;;;2.88;0.52;;;9.60;87.40;;;;;;4855407;29;87463;-71
2023/04/14 07:57:35;;;;;;;6.20;0.63;;;9.70;86.50;;;;;;4855261;28;88265;-71
2023/04/14 08:00:02;;;;;;;3.65;0.70;;;10.00;87.60;;;;;;4848526;29;87965;-71
2023/04/14 08:02:29;;;;;;;4.40;0.68;;;10.00;84.60;;;;;;4847694;29;87076;-71
2023/04/14 08:04:55;;;;;;;5.25;0.57;;;10.00;84.30;;;;;;4853705;29;86658;-71
2023/04/14 08:07:20;;;;;;;4.53;0.88;;;10.00;83.60;;;;;;4858238;29;87573;-71
2023/04/14 08:09:48;;;;;;;5.25;0.75;;;9.90;85.40;;;;;;4851401;29;88122;-71
2023/04/14 08:12:13;;;;;;;3.88;0.73;;;10.00;85.20;;;;;;4854468;29;88429;-71
2023/04/14 08:14:39;;;;;;;3.90;0.63;;;10.20;86.80;;;;;;4862546;28;87587;-71
2023/04/14 08:17:05;;;;;;;4.90;0.98;;;10.40;82.60;;;;;;4848913;29;88526;-71
2023/04/14 08:19:32;;;;;;;4.53;1.27;;;10.60;83.60;;;;;;4845271;29;87813;-71
2023/04/14 08:21:58;;;;;;;5.60;1.00;;;10.70;79.50;;;;;;4855303;29;87178;-71
2023/04/14 08:24:24;;;;;;;5.15;1.23;;;10.60;79.70;;;;;;4845494;29;87715;-71
2023/04/14 08:26:49;;;;;;;5.55;0.90;;;10.60;80.50;;;;;;4860099;28;87577;-71
2023/04/14 08:29:15;;;;;;;7.50;0.90;;;10.70;80.20;;;;;;4858994;29;87868;-71
2023/04/14 08:31:41;;;;;;;3.70;0.60;;;10.60;78.70;;;;;;4844451;29;87711;-71
2023/04/14 08:34:06;;;;;;;5.07;0.80;;;10.70;79.70;;;;;;4863249;29;87595;-71
2023/04/14 08:36:32;;;;;;;8.43;0.95;;;10.60;78.30;;;;;;4862812;29;88515;-71
2023/04/14 08:38:59;;;;;;;5.45;0.60;;;10.60;78.10;;;;;;4858445;29;88088;-71
2023/04/14 08:41:27;;;;;;;5.68;0.63;;;10.50;77.10;;;;;;4856933;29;88528;-71
2023/04/14 08:43:53;;;;;;;6.93;0.63;;;10.40;80.60;;;;;;4854684;28;87398;-71
2023/04/14 08:46:19;;;;;;;6.07;0.65;;;10.50;79.30;;;;;;4856419;29;87790;-71
2023/04/14 08:48:49;;;;;;;4.53;0.60;;;10.60;78.50;;;;;;4859292;28;87943;-70
2023/04/14 08:51:32;;;;;;;6.45;0.70;;;10.70;77.10;;;;;;4852492;29;87674;-71
2023/04/14 08:54:01;;;;;;;4.53;0.70;;;10.80;77.60;;;;;;4853682;29;86577;-71
2023/04/14 08:56:37;;;;;;;7.13;0.95;;;11.00;79.00;;;;;;4860006;29;87844;-71
2023/04/14 08:59:07;;;;;;;6.47;0.70;;;11.10;75.60;;;;;;4855715;29;87459;-71
2023/04/14 09:01:34;;;;;;;5.55;0.60;;;11.20;75.60;;;;;;4849832;29;88073;-70
2023/04/14 09:04:04;;;;;;;6.82;0.80;;;11.40;75.40;;;;;;4851850;29;87123;-70
2023/04/14 09:06:31;;;;;;;6.28;0.70;;;11.40;74.80;;;;;;4851745;28;87469;-72
2023/04/14 09:09:02;;;;;;;6.25;0.70;;;11.50;75.50;;;;;;4846589;29;87497;-71
2023/04/14 09:11:29;;;;;;;6.15;0.70;;;11.60;73.10;;;;;;4855760;29;89033;-71
2023/04/14 09:13:58;;;;;;;4.45;0.98;;;11.80;72.20;;;;;;4848896;29;87484;-71
2023/04/14 09:16:25;;;;;;;6.38;0.70;;;11.80;71.50;;;;;;4850970;29;87427;-70
2023/04/14 09:18:55;;;;;;;5.95;0.70;;;11.90;73.20;;;;;;4847603;29;87195;-71
2023/04/14 09:21:21;;;;;;;6.20;1.35;;;12.30;71.50;;;;;;4857395;28;87543;-71
2023/04/14 09:23:47;;;;;;;9.07;0.85;;;13.80;69.40;;;;;;4857099;28;87445;-70
2023/04/14 09:26:13;;;;;;;5.78;0.50;;;14.20;66.90;;;;;;4846720;29;88741;-72
2023/04/14 09:28:40;;;;;;;6.63;0.70;;;14.10;66.40;;;;;;4845253;29;89515;-71
2023/04/14 09:31:06;;;;;;;5.38;0.68;;;13.90;65.60;;;;;;4850524;29;87308;-70
2023/04/14 09:33:57;;;;;;;11.95;0.93;;;13.70;65.70;;;;;;4853455;28;87572;-73
2023/04/14 09:36:25;;;;;;;7.35;0.82;;;13.50;65.90;;;;;;4859637;28;88286;-71
2023/04/14 09:38:51;;;;;;;5.47;0.88;;;14.10;66.80;;;;;;4864657;28;88031;-72
2023/04/14 09:41:21;;;;;;;9.35;1.00;;;16.90;60.60;;;;;;4870442;28;87309;-72
2023/04/14 09:43:48;;;;;;;3.90;1.08;;;18.70;56.10;;;;;;4862773;29;86549;-72
2023/04/14 09:46:14;;;;;;;6.80;1.40;;;20.40;52.60;;;;;;4862101;29;88350;-72
2023/04/14 09:48:54;;;;;;;5.25;1.05;;;22.80;50.80;;;;;;4862380;29;87821;-72
2023/04/14 09:51:26;;;;;;;6.05;1.63;;;24.70;43.50;;;;;;4861146;29;88232;-73
2023/04/14 09:53:53;;;;;;;5.75;1.08;;;25.70;43.30;;;;;;4862055;29;87581;-72
2023/04/14 09:56:24;;;;;;;6.55;1.25;;;26.80;39.40;;;;;;4862927;28;88010;-73
2023/04/14 09:58:50;;;;;;;6.55;2.03;;;27.50;40.30;;;;;;4862206;29;87101;-73
2023/04/14 10:01:20;;;;;;;6.93;1.63;;;28.90;37.70;;;;;;4861898;29;87534;-73
2023/04/14 10:03:47;;;;;;;6.30;1.50;;;29.60;36.00;;;;;;4856670;29;88762;-73
2023/04/14 10:06:17;;;;;;;7.22;1.67;;;29.70;35.30;;;;;;4860980;29;89160;-73
2023/04/14 10:08:48;;;;;;;6.47;2.10;;;30.10;36.00;;;;;;4862517;29;87676;-73
2023/04/14 10:11:34;;;;;;;12.98;2.05;;;30.10;35.70;;;;;;4862518;29;87106;-73
2023/04/14 10:14:04;;;;;;;5.78;1.58;;;29.10;33.90;;;;;;4857926;28;87497;-73
2023/04/14 10:16:31;;;;;;;4.90;1.60;;;27.80;36.20;;;;;;4854130;28;89805;-73
2023/04/14 10:18:57;;;;;;;6.68;1.50;;;26.30;37.30;;;;;;4844268;29;89983;-73
2023/04/14 10:21:24;;;;;;;8.00;1.48;;;25.30;39.50;;;;;;4860902;29;87765;-73
2023/04/14 10:23:50;;;;;;;4.65;0.95;;;24.30;40.40;;;;;;4861371;29;87084;-72
2023/04/14 10:26:17;;;;;;;6.65;1.38;;;23.50;41.00;;;;;;4863290;29;88300;-72
2023/04/14 10:28:45;;;;;;;6.97;1.23;;;22.30;41.30;;;;;;4864570;29;87574;-72
2023/04/14 10:31:16;;;;;;;4.40;0.77;;;20.90;44.30;;;;;;4860368;28;87626;-72
2023/04/14 10:33:42;;;;;;;7.88;0.85;;;20.10;47.20;;;;;;4856397;28;90169;-72
2023/04/14 10:36:08;;;;;;;4.90;0.70;;;19.80;48.00;;;;;;4861301;28;87158;-72
2023/04/14 10:38:45;;;;;;;5.43;0.88;;;19.60;47.90;;;;;;4855995;28;87863;-72
2023/04/14 10:41:11;;;;;;;5.50;1.30;;;19.40;47.60;;;;;;4857873;29;89750;-72
2023/04/14 10:43:38;;;;;;;4.88;0.68;;;19.00;45.90;;;;;;4864452;29;87309;-72
2023/04/14 10:46:06;;;;;;;4.82;0.73;;;18.30;47.80;;;;;;4860207;28;89207;-72
2023/04/14 10:48:34;;;;;;;6.30;0.77;;;17.70;50.10;;;;;;4860150;28;87498;-72
2023/04/14 10:51:08;;;;;;;6.22;0.50;;;17.20;49.40;;;;;;4862014;28;88697;-72
2023/04/14 10:53:46;;;;;;;4.82;0.50;;;17.10;50.50;;;;;;4860144;29;87502;-72
2023/04/14 10:56:12;;;;;;;3.78;0.40;;;17.10;52.40;;;;;;4859386;28;87745;-72
2023/04/14 10:58:38;;;;;;;6.40;0.90;;;16.80;54.40;;;;;;4861245;28;87870;-72
2023/04/14 11:01:30;;;;;;;6.47;0.60;;;16.60;52.40;;;;;;4863934;28;87511;-72
2023/04/14 11:03:57;;;;;;;6.78;0.77;;;16.20;51.40;;;;;;4862828;28;87382;-72
2023/04/14 11:06:49;;;;;;;6.20;0.43;;;15.80;54.80;;;;;;4844525;29;90187;-72
2023/04/14 11:09:41;;;;;;;5.38;0.60;;;16.00;53.80;;;;;;4844196;29;89026;-72
2023/04/14 11:12:25;;;;;;;6.40;0.65;;;16.00;55.10;;;;;;4862023;29;87364;-72
2023/04/14 11:14:57;;;;;;;5.80;0.75;;;15.60;52.40;;;;;;4863570;28;87268;-71
2023/04/14 11:17:28;;;;;;;3.80;0.52;;;15.50;55.90;;;;;;4852238;28;88243;-72
2023/04/14 11:19:56;;;;;;;6.95;0.73;;;15.40;54.40;;;;;;4855820;28;87900;-71
2023/04/14 11:22:40;;;;;;;6.25;0.70;;;15.60;56.30;;;;;;4859153;28;87760;-71
2023/04/14 11:25:07;;;;;;;6.28;0.50;;;15.90;55.50;;;;;;4860310;28;86774;-71
2023/04/14 11:27:33;;;;;;;5.32;0.57;;;15.80;55.20;;;;;;4842424;28;89657;-72
2023/04/14 11:30:00;;;;;;;4.25;0.52;;;15.70;56.70;;;;;;4861134;28;89131;-72
2023/04/14 11:32:26;;;;;;;6.38;0.90;;;15.60;56.30;;;;;;4861113;28;88685;-72
2023/04/14 11:34:51;;;;;;;4.97;0.50;;;15.70;59.40;;;;;;4857237;29;87690;-71
2023/04/14 11:37:17;;;;;;;6.55;0.93;;;15.90;56.00;;;;;;4856553;29;87423;-71
2023/04/14 11:39:43;;;;;;;6.00;0.55;;;15.70;56.90;;;;;;4859809;28;88503;-72
2023/04/14 11:42:09;;;;;;;6.13;0.55;;;15.90;57.00;;;;;;4843745;29;88692;-72
2023/04/14 11:44:35;;;;;;;6.13;0.50;;;15.80;54.80;;;;;;4855908;28;88612;-71
2023/04/14 11:47:03;;;;;;;2.95;0.38;;;15.70;58.50;;;;;;4850428;28;90219;-72
2023/04/14 11:49:35;;;;;;;5.95;0.50;;;15.80;56.20;;;;;;4858736;28;87843;-72
2023/04/14 11:52:06;;;;;;;4.82;0.20;;;15.80;54.40;;;;;;4860222;28;87656;-69
2023/04/14 11:54:38;;;;;;;4.47;0.50;;;15.50;55.20;;;;;;4860421;28;87836;-70
2023/04/14 11:57:16;;;;;;;6.85;1.05;;;15.40;56.40;;;;;;4846329;29;90177;-70
2023/04/14 11:59:43;;;;;;;6.45;0.73;;;15.50;58.80;;;;;;4861328;29;88850;-70
2023/04/14 12:02:16;;;;;;;6.53;0.85;;;15.40;56.10;;;;;;4861612;29;87719;-70
2023/04/14 12:04:44;;;;;;;5.50;0.85;;;15.40;57.20;;;;;;4860933;29;87708;-70
2023/04/14 12:07:12;;;;;;;5.05;0.60;;;15.50;57.30;;;;;;4861269;29;87737;-70
2023/04/14 12:09:42;;;;;;;3.90;0.40;;;15.40;57.90;;;;;;4859137;28;88034;-70
2023/04/14 12:12:10;;;;;;;4.43;0.55;;;15.30;54.10;;;;;;4850581;28;87747;-70
2023/04/14 12:14:38;;;;;;;5.25;0.45;;;15.50;56.50;;;;;;4862000;29;87121;-71
2023/04/14 12:17:05;;;;;;;4.72;0.30;;;15.40;55.70;;;;;;4861397;29;87414;-70
2023/04/14 12:19:31;;;;;;;5.68;0.30;;;15.50;54.80;;;;;;4860879;29;87595;-71
2023/04/14 12:21:56;;;;;;;6.57;0.50;;;15.40;51.40;;;;;;4861478;29;88324;-70
2023/04/14 12:24:22;;;;;;;5.38;0.60;;;15.00;53.70;;;;;;4861002;28;87225;-71
2023/04/14 12:26:48;;;;;;;2.65;0.40;;;15.00;49.90;;;;;;4861716;29;88185;-70
2023/04/14 12:29:14;;;;;;;6.07;0.40;;;15.10;50.80;;;;;;4861125;28;88295;-70
2023/04/14 12:31:43;;;;;;;3.53;0.35;;;15.30;54.30;;;;;;4860800;29;86999;-71
2023/04/14 12:34:08;;;;;;;5.25;0.35;;;15.30;53.40;;;;;;4860979;29;87131;-71
2023/04/14 12:36:39;;;;;;;5.55;0.40;;;15.30;51.00;;;;;;4860686;29;87779;-71
2023/04/14 12:39:05;;;;;;;4.07;0.50;;;14.90;52.50;;;;;;4860335;29;88026;-71
2023/04/14 12:41:31;;;;;;;4.10;0.35;;;14.80;51.00;;;;;;4859892;29;87552;-72
2023/04/14 12:43:57;;;;;;;4.18;0.30;;;14.60;51.90;;;;;;4859412;28;87315;-72
2023/04/14 12:46:26;;;;;;;3.13;0.17;;;14.40;50.20;;;;;;4861630;28;89126;-72
2023/04/14 12:48:51;;;;;;;4.32;0.30;;;14.10;50.50;;;;;;4843177;29;89817;-72
2023/04/14 12:51:19;;;;;;;4.15;0.40;;;13.90;52.60;;;;;;4860848;29;87160;-72
2023/04/14 12:53:46;;;;;;;6.20;0.30;;;13.70;53.30;;;;;;4857998;29;87269;-71
2023/04/14 12:56:14;;;;;;;4.13;0.45;;;14.00;53.00;;;;;;4860920;29;87717;-71
2023/04/14 12:58:42;;;;;;;3.88;0.35;;;14.30;56.40;;;;;;4860542;29;87331;-70
2023/04/14 13:01:10;;;;;;;5.05;0.20;;;14.80;53.70;;;;;;4861378;29;87379;-70
2023/04/14 13:03:50;;;;;;;4.50;0.30;;;15.20;53.10;;;;;;4862183;28;86912;-71
2023/04/14 13:06:17;;;;;;;3.65;0.50;;;15.40;54.00;;;;;;4860826;29;88433;-71
2023/04/14 13:08:45;;;;;;;2.15;0.20;;;15.40;51.40;;;;;;4860354;29;87424;-71
2023/04/14 13:11:15;;;;;;;3.90;0.30;;;15.30;51.40;;;;;;4860981;28;88107;-71
2023/04/14 13:13:43;;;;;;;3.33;0.30;;;15.30;51.30;;;;;;4861023;29;87364;-71
2023/04/14 13:16:09;;;;;;;5.97;0.40;;;15.30;52.20;;;;;;4860627;29;88210;-72
2023/04/14 13:18:34;;;;;;;2.35;0.20;;;15.40;52.30;;;;;;4860841;29;87849;-71
2023/04/14 13:21:02;;;;;;;5.72;0.30;;;15.50;50.20;;;;;;4864067;28;87586;-72
2023/04/14 13:23:28;;;;;;;5.07;0.40;;;15.70;52.10;;;;;;4859081;28;87437;-71
2023/04/14 13:25:55;;;;;;;2.50;0.20;;;16.10;52.30;;;;;;4859858;29;88792;-71
2023/04/14 13:28:20;;;;;;;4.53;0.55;;;16.40;50.00;;;;;;4860955;29;88189;-72
2023/04/14 13:30:52;;;;;;;5.30;0.32;;;16.50;51.10;;;;;;4860526;28;87759;-72
2023/04/14 13:33:18;;;;;;;4.57;0.40;;;16.30;47.50;;;;;;4860704;29;87578;-72
2023/04/14 13:35:44;;;;;;;4.22;0.70;;;16.00;50.00;;;;;;4860056;29;88610;-72
2023/04/14 13:38:09;;;;;;;4.20;0.32;;;15.80;51.40;;;;;;4859466;28;88240;-71
2023/04/14 13:40:35;;;;;;;4.82;0.25;;;15.50;48.20;;;;;;4860403;28;87392;-72
2023/04/14 13:43:01;;;;;;;2.45;0.40;;;15.50;49.70;;;;;;4858408;29;87153;-72
2023/04/14 13:45:27;;;;;;;7.13;0.40;;;15.80;51.20;;;;;;4851662;29;88115;-73
2023/04/14 13:47:53;;;;;;;4.55;0.28;;;16.20;50.80;;;;;;4862113;29;87971;-72
2023/04/14 13:50:19;;;;;;;4.22;0.47;;;16.40;47.30;;;;;;4861729;29;87471;-72
2023/04/14 13:52:45;;;;;;;5.95;0.88;;;16.30;48.00;;;;;;4861836;29;86821;-72
2023/04/14 13:55:11;;;;;;;7.85;1.00;;;16.20;52.60;;;;;;4862745;28;87723;-72
2023/04/14 13:57:37;;;;;;;5.35;0.40;;;16.30;52.20;;;;;;4862196;29;88321;-72
2023/04/14 14:00:08;;;;;;;4.32;0.65;;;16.40;49.60;;;;;;4859145;29;88528;-72
2023/04/14 14:02:35;;;;;;;4.75;0.40;;;16.70;53.00;;;;;;4858068;29;87484;-72
2023/04/14 14:05:02;;;;;;;2.95;0.38;;;17.20;47.90;;;;;;4861206;29;88076;-72
2023/04/14 14:07:27;;;;;;;5.65;0.35;;;17.40;48.20;;;;;;4860872;29;87925;-72
2023/04/14 14:09:53;;;;;;;3.58;0.35;;;17.50;47.00;;;;;;4860076;28;87520;-72
2023/04/14 14:12:19;;;;;;;3.22;0.30;;;17.50;47.10;;;;;;4862748;28;87388;-73
2023/04/14 14:14:45;;;;;;;4.20;0.40;;;18.00;45.50;;;;;;4861484;29;87963;-72
2023/04/14 14:17:11;;;;;;;2.72;0.30;;;18.20;46.10;;;;;;4862193;29;88436;-73
2023/04/14 14:19:37;;;;;;;2.67;0.40;;;18.30;45.10;;;;;;4859766;29;87423;-72
2023/04/14 14:22:02;;;;;;;3.78;0.50;;;18.40;45.50;;;;;;4860046;28;87386;-73
2023/04/14 14:24:28;;;;;;;3.45;0.57;;;18.60;44.30;;;;;;4860433;28;89034;-72
2023/04/14 14:26:55;;;;;;;5.18;0.30;;;18.70;45.60;;;;;;4861948;29;88350;-73
2023/04/14 14:29:21;;;;;;;2.33;0.30;;;18.80;44.40;;;;;;4862115;28;87058;-72
2023/04/14 14:31:47;;;;;;;5.00;0.38;;;18.70;44.20;;;;;;4862269;29;87495;-72
2023/04/14 14:34:13;;;;;;;6.28;0.32;;;18.30;44.50;;;;;;4861448;29;87689;-72
2023/04/14 14:36:38;;;;;;;5.68;0.50;;;17.90;45.00;;;;;;4861092;29;87506;-73
2023/04/14 14:39:04;;;;;;;4.15;0.35;;;17.80;47.30;;;;;;4861815;29;86950;-73
2023/04/14 14:41:30;;;;;;;5.32;0.25;;;17.80;43.10;;;;;;4862606;29;86637;-72
2023/04/14 14:43:56;;;;;;;4.10;0.50;;;17.80;46.80;;;;;;4860779;29;88290;-72
2023/04/14 14:46:22;;;;;;;3.85;0.32;;;18.00;46.00;;;;;;4865719;28;87407;-72
2023/04/14 14:48:47;;;;;;;3.88;0.25;;;17.80;43.00;;;;;;4860697;29;88674;-72
2023/04/14 14:51:14;;;;;;;3.45;0.60;;;17.80;46.90;;;;;;4852755;29;88149;-72
2023/04/14 14:53:39;;;;;;;2.03;0.30;;;17.60;41.20;;;;;;4857244;29;88103;-72
2023/04/14 14:56:05;;;;;;;5.57;0.30;;;17.50;41.70;;;;;;4860727;29;87387;-72
2023/04/14 14:58:31;;;;;;;5.35;0.30;;;17.50;44.40;;;;;;4861148;29;87719;-72
2023/04/14 15:00:57;;;;;;;5.80;0.40;;;17.40;43.30;;;;;;4860114;28;87668;-72
2023/04/14 15:03:23;;;;;;;2.83;0.20;;;17.00;43.40;;;;;;4861175;28;87542;-72
2023/04/14 15:05:51;;;;;;;2.92;0.20;;;16.70;44.10;;;;;;4859353;29;87347;-72
2023/04/14 15:08:17;;;;;;;3.80;0.40;;;16.70;45.50;;;;;;4859940;29;87366;-72
2023/04/14 15:10:43;;;;;;;5.55;0.28;;;16.70;43.90;;;;;;4847011;29;87315;-72
2023/04/14 15:13:08;;;;;;;2.97;0.25;;;16.50;42.90;;;;;;4861823;29;88290;-72
2023/04/14 15:15:34;;;;;;;2.55;0.22;;;16.40;45.00;;;;;;4845591;29;89595;-73
2023/04/14 15:18:00;;;;;;;4.45;0.30;;;16.40;44.50;;;;;;4863075;29;87437;-72
2023/04/14 15:20:25;;;;;;;3.90;0.20;;;16.50;42.30;;;;;;4863428;28;87461;-72
2023/04/14 15:22:51;;;;;;;6.70;0.60;;;16.50;43.60;;;;;;4863941;29;88141;-72
2023/04/14 15:25:17;;;;;;;2.78;0.40;;;16.50;41.80;;;;;;4864264;28;87928;-72
2023/04/14 15:27:43;;;;;;;4.13;0.20;;;16.50;43.30;;;;;;4863712;28;87171;-72
2023/04/14 15:30:09;;;;;;;5.07;0.50;;;16.50;42.30;;;;;;4865061;29;87001;-72
2023/04/14 15:32:34;;;;;;;6.00;0.65;;;16.40;45.00;;;;;;4863914;29;88381;-72
2023/04/14 15:35:00;;;;;;;2.85;0.20;;;16.40;45.60;;;;;;4862546;28;88800;-72
2023/04/14 15:37:26;;;;;;;4.05;0.20;;;16.50;45.80;;;;;;4869984;28;88010;-72
2023/04/14 15:39:52;;;;;;;4.22;0.20;;;16.60;45.90;;;;;;4863699;29;87472;-71
2023/04/14 15:42:18;;;;;;;2.03;0.20;;;16.60;44.50;;;;;;4843880;29;88218;-72
2023/04/14 15:44:44;;;;;;;2.95;0.30;;;16.70;47.50;;;;;;4863714;29;87365;-71
2023/04/14 15:47:10;;;;;;;3.17;0.20;;;16.70;47.40;;;;;;4864282;29;87374;-71
2023/04/14 15:49:36;;;;;;;2.95;0.28;;;16.50;43.90;;;;;;4863684;29;87534;-71
2023/04/14 15:52:01;;;;;;;3.13;0.30;;;16.20;44.70;;;;;;4862210;29;88268;-71